createdAt,value
2022-11-01T00:00:11.066Z,63.99
2022-11-01T00:01:11.087Z,62.32
2022-11-01T00:02:11.087Z,62.00
2022-11-01T00:03:11.028Z,63.31
2022-11-01T00:04:11.007Z,62.62
2022-11-01T00:05:11.053Z,62.25
2022-11-01T00:06:10.995Z,60.65
2022-11-01T00:07:10.992Z,56.21
2022-11-01T00:08:10.981Z,59.46
2022-11-01T00:09:10.997Z,61.68
2022-11-01T00:10:10.987Z,65.52
2022-11-01T00:11:11.007Z,59.72
2022-11-01T00:12:10.954Z,64.65
2022-11-01T00:13:10.989Z,60.06
2022-11-01T00:14:10.945Z,63.99
2022-11-01T00:15:11.085Z,64.20
2022-11-01T00:16:10.913Z,62.05
2022-11-01T00:17:10.924Z,64.46
2022-11-01T00:18:10.897Z,65.67
2022-11-01T00:19:10.920Z,58.77
2022-11-01T00:20:10.873Z,63.49
2022-11-01T00:21:10.865Z,63.78
2022-11-01T00:22:10.964Z,66.01
2022-11-01T00:23:10.849Z,60.45
2022-11-01T00:24:10.838Z,63.74
2022-11-01T00:25:10.834Z,66.37
2022-11-01T00:26:10.830Z,63.78
2022-11-01T00:27:10.822Z,64.22
2022-11-01T00:28:10.849Z,66.69
2022-11-01T00:29:10.815Z,64.58
2022-11-01T00:30:10.799Z,63.31
2022-11-01T00:31:12.691Z,61.57
2022-11-01T00:32:10.798Z,64.35
2022-11-01T00:33:10.770Z,63.06
2022-11-01T00:34:10.783Z,61.15
2022-11-01T00:35:10.750Z,61.27
2022-11-01T00:36:10.729Z,60.75
2022-11-01T00:37:10.732Z,63.17
2022-11-01T00:38:10.721Z,64.45
2022-11-01T00:39:10.736Z,62.18
2022-11-01T00:40:10.708Z,63.30
2022-11-01T00:41:10.704Z,66.06
2022-11-01T00:42:10.688Z,65.94
2022-11-01T00:43:10.710Z,61.48
2022-11-01T00:44:10.658Z,59.74
2022-11-01T00:45:10.687Z,61.65
2022-11-01T00:46:10.656Z,56.71
2022-11-01T00:47:10.647Z,64.51
2022-11-01T00:48:10.636Z,60.38
2022-11-01T00:49:10.624Z,61.71
2022-11-01T00:50:10.621Z,63.14
2022-11-01T00:51:10.635Z,62.08
2022-11-01T00:52:10.621Z,61.41
2022-11-01T00:53:10.597Z,62.63
2022-11-01T00:54:10.588Z,63.49
2022-11-01T00:55:10.572Z,63.53
2022-11-01T00:56:10.629Z,62.70
2022-11-01T00:57:10.560Z,64.20
2022-11-01T00:58:10.573Z,63.79
2022-11-01T00:59:10.548Z,61.37
2022-11-01T01:00:10.524Z,60.43
2022-11-01T01:01:10.668Z,64.92
2022-11-01T01:02:10.623Z,64.48
2022-11-01T01:03:10.521Z,61.03
2022-11-01T01:04:10.496Z,61.76
2022-11-01T01:05:10.484Z,64.35
2022-11-01T01:06:10.491Z,64.46
2022-11-01T01:07:10.467Z,63.45
2022-11-01T01:08:10.471Z,62.94
2022-11-01T01:09:10.492Z,61.79
2022-11-01T01:10:10.457Z,60.15
2022-11-01T01:11:10.456Z,64.18
2022-11-01T01:12:10.433Z,61.63
2022-11-01T01:13:10.427Z,60.67
2022-11-01T01:14:10.421Z,61.66
2022-11-01T01:15:10.496Z,61.20
2022-11-01T01:16:10.414Z,61.03
2022-11-01T01:17:10.410Z,62.37
2022-11-01T01:18:10.376Z,64.28
2022-11-01T01:19:10.379Z,64.46
2022-11-01T01:20:10.386Z,61.96
2022-11-01T01:21:10.360Z,61.23
2022-11-01T01:22:10.360Z,59.51
2022-11-01T01:23:10.342Z,59.15
2022-11-01T01:24:10.338Z,56.64
2022-11-01T01:25:10.333Z,62.55
2022-11-01T01:26:19.727Z,60.71
2022-11-01T01:27:10.311Z,63.21
2022-11-01T01:28:10.298Z,61.49
2022-11-01T01:29:10.286Z,57.75
2022-11-01T01:30:10.279Z,59.84
2022-11-01T01:31:10.268Z,63.52
2022-11-01T01:32:10.286Z,61.25
2022-11-01T01:34:10.243Z,60.08
2022-11-01T01:35:10.237Z,59.17
2022-11-01T01:36:10.234Z,59.97
2022-11-01T01:37:10.235Z,57.91
2022-11-01T01:38:10.240Z,64.99
2022-11-01T01:39:10.270Z,60.05
2022-11-01T01:40:10.207Z,62.45
2022-11-01T01:41:10.191Z,62.53
2022-11-01T01:42:10.185Z,62.45
2022-11-01T01:43:10.170Z,61.20
2022-11-01T01:44:10.180Z,59.02
2022-11-01T01:45:10.181Z,59.69
2022-11-01T01:46:10.151Z,60.37
2022-11-01T01:47:10.141Z,64.00
2022-11-01T01:48:10.130Z,63.23
2022-11-01T01:49:10.145Z,58.44
2022-11-01T01:50:10.116Z,60.63
2022-11-01T01:51:10.104Z,61.59
2022-11-01T01:52:10.106Z,57.24
2022-11-01T01:53:10.089Z,57.68
2022-11-01T01:54:10.085Z,58.04
2022-11-01T01:55:10.094Z,61.17
2022-11-01T01:56:10.094Z,62.22
2022-11-01T01:57:10.061Z,65.07
2022-11-01T01:58:10.051Z,61.58
2022-11-01T01:59:10.045Z,60.44
2022-11-01T02:00:10.049Z,63.61
2022-11-01T02:01:10.156Z,58.56
2022-11-01T02:02:10.045Z,61.75
2022-11-01T02:03:10.003Z,61.48
2022-11-01T02:04:10.000Z,60.79
2022-11-01T02:05:09.991Z,60.12
2022-11-01T02:06:10.134Z,62.26
2022-11-01T02:07:09.968Z,64.34
2022-11-01T02:08:09.979Z,58.92
2022-11-01T02:09:09.958Z,66.30
2022-11-01T02:10:09.947Z,61.56
2022-11-01T02:11:09.947Z,60.07
2022-11-01T02:12:10.265Z,62.70
2022-11-01T02:13:09.928Z,60.04
2022-11-01T02:14:09.917Z,57.84
2022-11-01T02:15:09.937Z,60.06
2022-11-01T02:16:09.898Z,63.71
2022-11-01T02:17:09.918Z,61.12
2022-11-01T02:18:09.881Z,63.12
2022-11-01T02:19:09.875Z,61.97
2022-11-01T02:20:09.886Z,57.50
2022-11-01T02:21:09.849Z,61.46
2022-11-01T02:22:09.858Z,65.04
2022-11-01T02:23:09.842Z,63.25
2022-11-01T02:24:09.839Z,59.77
2022-11-01T02:25:09.857Z,61.98
2022-11-01T02:26:09.816Z,59.93
2022-11-01T02:27:09.814Z,58.47
2022-11-01T02:28:09.793Z,61.03
2022-11-01T02:29:09.789Z,59.65
2022-11-01T02:30:09.784Z,64.76
2022-11-01T02:31:09.806Z,60.03
2022-11-01T02:32:09.763Z,60.87
2022-11-01T02:33:09.752Z,63.10
2022-11-01T02:34:09.740Z,63.16
2022-11-01T02:35:09.744Z,59.92
2022-11-01T02:36:09.768Z,58.21
2022-11-01T02:37:09.715Z,60.48
2022-11-01T02:38:09.710Z,59.36
2022-11-01T02:39:09.736Z,62.66
2022-11-01T02:40:09.695Z,60.88
2022-11-01T02:41:09.694Z,60.68
2022-11-01T02:42:09.705Z,60.25
2022-11-01T02:43:09.670Z,62.27
2022-11-01T02:44:09.680Z,60.30
2022-11-01T02:45:09.652Z,61.93
2022-11-01T02:46:09.723Z,61.92
2022-11-01T02:47:09.665Z,57.75
2022-11-01T02:48:09.629Z,62.87
2022-11-01T02:49:09.619Z,61.95
2022-11-01T02:50:09.643Z,66.92
2022-11-01T02:51:09.599Z,57.65
2022-11-01T02:52:09.591Z,62.04
2022-11-01T02:53:09.585Z,57.55
2022-11-01T02:54:09.588Z,64.14
2022-11-01T02:55:09.576Z,60.55
2022-11-01T02:56:09.580Z,58.92
2022-11-01T02:57:09.548Z,59.41
2022-11-01T02:58:09.559Z,58.43
2022-11-01T02:59:09.536Z,62.16
2022-11-01T03:00:09.521Z,61.02
2022-11-01T03:01:09.646Z,60.75
2022-11-01T03:02:09.549Z,65.15
2022-11-01T03:03:09.492Z,64.22
2022-11-01T03:04:09.509Z,64.44
2022-11-01T03:05:09.489Z,64.60
2022-11-01T03:06:09.474Z,62.08
2022-11-01T03:07:09.495Z,67.29
2022-11-01T03:08:09.466Z,64.38
2022-11-01T03:09:09.480Z,61.61
2022-11-01T03:10:09.458Z,65.15
2022-11-01T03:11:09.433Z,65.19
2022-11-01T03:12:09.427Z,63.89
2022-11-01T03:13:09.436Z,64.08
2022-11-01T03:14:09.412Z,67.09
2022-11-01T03:15:09.400Z,64.92
2022-11-01T03:16:09.401Z,63.77
2022-11-01T03:17:09.378Z,64.21
2022-11-01T03:18:09.363Z,63.44
2022-11-01T03:19:09.385Z,60.85
2022-11-01T03:20:09.359Z,58.91
2022-11-01T03:21:09.348Z,62.59
2022-11-01T03:22:09.350Z,62.08
2022-11-01T03:23:09.335Z,61.62
2022-11-01T03:24:09.319Z,65.76
2022-11-01T03:25:09.338Z,61.49
2022-11-01T03:26:09.315Z,61.56
2022-11-01T03:27:09.300Z,61.29
2022-11-01T03:28:09.352Z,64.03
2022-11-01T03:29:09.271Z,64.12
2022-11-01T03:30:09.290Z,59.00
2022-11-01T03:31:09.290Z,62.93
2022-11-01T03:32:09.312Z,65.04
2022-11-01T03:33:09.242Z,59.43
2022-11-01T03:34:09.233Z,64.46
2022-11-01T03:35:09.224Z,66.01
2022-11-01T03:36:13.515Z,59.67
2022-11-01T03:37:10.213Z,63.35
2022-11-01T03:38:09.197Z,61.61
2022-11-01T03:39:09.200Z,63.96
2022-11-01T03:40:09.208Z,66.41
2022-11-01T03:41:09.185Z,63.43
2022-11-01T03:42:09.194Z,62.07
2022-11-01T03:43:09.160Z,62.04
2022-11-01T03:44:09.155Z,65.15
2022-11-01T03:45:09.222Z,65.00
2022-11-01T03:46:09.144Z,64.28
2022-11-01T03:47:09.133Z,64.15
2022-11-01T03:48:09.149Z,65.37
2022-11-01T03:49:09.118Z,65.00
2022-11-01T03:50:09.114Z,66.20
2022-11-01T03:51:09.100Z,65.71
2022-11-01T03:52:09.101Z,64.57
2022-11-01T03:53:09.077Z,65.30
2022-11-01T03:54:09.092Z,65.13
2022-11-01T03:55:09.061Z,63.52
2022-11-01T03:56:09.059Z,62.56
2022-11-01T03:57:09.079Z,65.23
2022-11-01T03:58:09.038Z,61.56
2022-11-01T03:59:09.046Z,65.88
2022-11-01T04:00:09.025Z,63.69
2022-11-01T04:01:09.154Z,62.47
2022-11-01T04:03:08.995Z,63.36
2022-11-01T04:04:09.022Z,63.99
2022-11-01T04:05:08.995Z,61.95
2022-11-01T04:06:08.982Z,62.38
2022-11-01T04:07:08.968Z,64.88
2022-11-01T04:08:08.959Z,64.22
2022-11-01T04:09:08.964Z,61.76
2022-11-01T04:10:08.950Z,63.44
2022-11-01T04:11:08.951Z,65.12
2022-11-01T04:12:08.924Z,65.95
2022-11-01T04:13:08.904Z,62.56
2022-11-01T04:14:08.904Z,65.86
2022-11-01T04:15:08.888Z,66.13
2022-11-01T04:16:08.886Z,65.98
2022-11-01T04:17:08.894Z,65.38
2022-11-01T04:18:08.934Z,66.98
2022-11-01T04:19:08.903Z,64.70
2022-11-01T04:20:08.851Z,68.30
2022-11-01T04:21:08.849Z,66.20
2022-11-01T04:22:08.842Z,63.86
2022-11-01T04:23:08.848Z,63.30
2022-11-01T04:24:08.847Z,62.85
2022-11-01T04:25:08.882Z,65.04
2022-11-01T04:26:08.801Z,63.55
2022-11-01T04:27:08.785Z,66.03
2022-11-01T04:28:08.774Z,65.17
2022-11-01T04:29:08.764Z,65.53
2022-11-01T04:30:08.766Z,64.63
2022-11-01T04:31:08.784Z,63.12
2022-11-01T04:32:08.743Z,61.70
2022-11-01T04:33:08.744Z,64.19
2022-11-01T04:34:08.727Z,64.97
2022-11-01T04:35:08.723Z,64.71
2022-11-01T04:36:08.706Z,61.16
2022-11-01T04:37:08.747Z,64.48
2022-11-01T04:38:08.687Z,66.48
2022-11-01T04:39:08.684Z,66.64
2022-11-01T04:40:08.667Z,66.23
2022-11-01T04:41:08.661Z,65.70
2022-11-01T04:42:08.679Z,65.02
2022-11-01T04:43:08.660Z,64.55
2022-11-01T04:44:08.631Z,65.02
2022-11-01T04:45:08.633Z,64.69
2022-11-01T04:46:08.628Z,63.45
2022-11-01T04:47:08.633Z,61.47
2022-11-01T04:48:08.754Z,64.37
2022-11-01T04:49:08.599Z,64.91
2022-11-01T04:50:08.584Z,63.19
2022-11-01T04:51:08.580Z,64.17
2022-11-01T04:52:08.570Z,62.22
2022-11-01T04:53:08.581Z,67.25
2022-11-01T04:54:08.571Z,65.90
2022-11-01T04:55:08.549Z,64.06
2022-11-01T04:56:08.540Z,65.42
2022-11-01T04:57:08.629Z,63.46
2022-11-01T04:58:08.582Z,64.56
2022-11-01T04:59:08.510Z,65.69
2022-11-01T05:00:08.503Z,64.97
2022-11-01T05:01:08.564Z,64.69
2022-11-01T05:02:08.526Z,63.49
2022-11-01T05:03:08.558Z,61.31
2022-11-01T05:04:08.463Z,65.61
2022-11-01T05:05:08.474Z,65.35
2022-11-01T05:06:08.467Z,60.86
2022-11-01T05:07:08.443Z,64.77
2022-11-01T05:08:08.437Z,67.57
2022-11-01T05:09:08.455Z,65.95
2022-11-01T05:10:08.425Z,62.95
2022-11-01T05:11:08.412Z,64.39
2022-11-01T05:12:08.414Z,62.85
2022-11-01T05:13:08.407Z,65.17
2022-11-01T05:14:08.409Z,63.85
2022-11-01T05:15:08.411Z,66.31
2022-11-01T05:16:23.690Z,66.07
2022-11-01T05:17:09.375Z,62.88
2022-11-01T05:18:08.354Z,65.76
2022-11-01T05:19:08.343Z,65.63
2022-11-01T05:20:08.343Z,66.71
2022-11-01T05:21:08.474Z,65.56
2022-11-01T05:22:08.328Z,65.42
2022-11-01T05:23:08.309Z,64.51
2022-11-01T05:24:08.307Z,62.81
2022-11-01T05:25:08.312Z,67.31
2022-11-01T05:26:08.291Z,65.50
2022-11-01T05:27:08.303Z,65.39
2022-11-01T05:28:08.284Z,66.80
2022-11-01T05:29:09.045Z,66.87
2022-11-01T05:30:09.263Z,67.74
2022-11-01T05:31:08.257Z,64.33
2022-11-01T05:32:08.245Z,65.92
2022-11-01T05:33:08.262Z,68.10
2022-11-01T05:34:08.345Z,68.01
2022-11-01T05:35:08.207Z,66.03
2022-11-01T05:36:08.199Z,65.48
2022-11-01T05:37:08.186Z,67.81
2022-11-01T05:38:08.186Z,66.34
2022-11-01T05:39:08.229Z,64.98
2022-11-01T05:40:08.173Z,66.39
2022-11-01T05:41:08.239Z,67.45
2022-11-01T05:42:08.179Z,65.15
2022-11-01T05:43:08.151Z,66.04
2022-11-01T05:44:08.148Z,68.39
2022-11-01T05:45:08.179Z,66.63
2022-11-01T05:46:08.151Z,67.02
2022-11-01T05:47:08.121Z,65.92
2022-11-01T05:48:08.111Z,66.25
2022-11-01T05:49:08.099Z,68.33
2022-11-01T05:50:08.090Z,67.17
2022-11-01T05:51:08.103Z,63.58
2022-11-01T05:52:08.095Z,66.99
2022-11-01T05:53:08.071Z,67.55
2022-11-01T05:54:08.094Z,67.25
2022-11-01T05:55:08.054Z,64.16
2022-11-01T05:56:08.042Z,67.52
2022-11-01T05:57:08.048Z,65.01
2022-11-01T05:58:08.048Z,66.07
2022-11-01T05:59:08.046Z,66.57
2022-11-01T06:00:08.035Z,68.29
2022-11-01T06:01:08.028Z,69.59
2022-11-01T06:02:08.036Z,67.46
2022-11-01T06:03:08.118Z,68.72
2022-11-01T06:04:07.991Z,67.22
2022-11-01T06:05:07.996Z,66.63
2022-11-01T06:06:07.976Z,68.02
2022-11-01T06:07:07.949Z,66.05
2022-11-01T06:08:07.943Z,66.06
2022-11-01T06:09:07.997Z,68.45
2022-11-01T06:10:07.928Z,68.60
2022-11-01T06:11:07.936Z,66.27
2022-11-01T06:12:07.905Z,65.81
2022-11-01T06:13:07.901Z,67.38
2022-11-01T06:14:07.902Z,65.35
2022-11-01T06:15:07.880Z,66.32
2022-11-01T06:16:07.888Z,67.94
2022-11-01T06:17:07.860Z,66.52
2022-11-01T06:18:07.866Z,66.59
2022-11-01T06:19:08.008Z,68.32
2022-11-01T06:20:07.839Z,66.82
2022-11-01T06:21:07.847Z,67.43
2022-11-01T06:22:07.818Z,66.66
2022-11-01T06:23:07.833Z,67.22
2022-11-01T06:24:07.809Z,66.70
2022-11-01T06:25:07.808Z,67.95
2022-11-01T06:26:08.724Z,68.77
2022-11-01T06:27:11.615Z,68.62
2022-11-01T06:28:07.781Z,69.61
2022-11-01T06:29:07.769Z,70.28
2022-11-01T06:30:07.766Z,66.64
2022-11-01T06:31:07.743Z,68.77
2022-11-01T06:32:07.741Z,68.69
2022-11-01T06:33:07.749Z,69.08
2022-11-01T06:34:07.724Z,68.56
2022-11-01T06:35:07.706Z,69.36
2022-11-01T06:36:07.702Z,67.34
2022-11-01T06:37:07.701Z,65.95
2022-11-01T06:38:07.735Z,68.02
2022-11-01T06:39:07.683Z,69.13
2022-11-01T06:40:07.667Z,65.91
2022-11-01T06:41:07.664Z,67.18
2022-11-01T06:42:07.684Z,67.79
2022-11-01T06:43:07.646Z,69.15
2022-11-01T06:44:07.670Z,67.57
2022-11-01T06:45:07.646Z,70.02
2022-11-01T06:46:07.658Z,68.92
2022-11-01T06:47:07.622Z,66.85
2022-11-01T06:48:07.616Z,68.56
2022-11-01T06:49:07.604Z,68.74
2022-11-01T06:50:07.608Z,70.05
2022-11-01T06:51:07.574Z,68.14
2022-11-01T06:52:07.570Z,69.26
2022-11-01T06:53:07.602Z,67.29
2022-11-01T06:54:07.559Z,69.62
2022-11-01T06:55:07.577Z,69.03
2022-11-01T06:56:07.545Z,69.13
2022-11-01T06:57:07.560Z,65.72
2022-11-01T06:58:07.535Z,67.69
2022-11-01T06:59:07.506Z,70.39
2022-11-01T07:00:07.498Z,67.30
2022-11-01T07:01:07.559Z,66.20
2022-11-01T07:02:12.407Z,66.12
2022-11-01T07:03:08.536Z,64.67
2022-11-01T07:04:07.499Z,68.72
2022-11-01T07:05:07.464Z,68.12
2022-11-01T07:06:07.557Z,68.96
2022-11-01T07:07:07.483Z,67.05
2022-11-01T07:08:07.540Z,66.10
2022-11-01T07:09:07.430Z,67.83
2022-11-01T07:10:07.417Z,67.89
2022-11-01T07:11:07.426Z,66.20
2022-11-01T07:12:07.401Z,67.90
2022-11-01T07:13:07.418Z,65.40
2022-11-01T07:14:07.386Z,68.87
2022-11-01T07:15:07.379Z,67.28
2022-11-01T07:16:07.354Z,67.96
2022-11-01T07:17:07.355Z,67.02
2022-11-01T07:18:07.352Z,69.25
2022-11-01T07:19:07.378Z,67.29
2022-11-01T07:20:07.342Z,66.97
2022-11-01T07:21:07.333Z,68.42
2022-11-01T07:22:07.331Z,68.00
2022-11-01T07:23:07.314Z,69.92
2022-11-01T07:24:07.317Z,67.75
2022-11-01T07:25:07.377Z,68.37
2022-11-01T07:26:07.297Z,69.93
2022-11-01T07:27:07.281Z,66.77
2022-11-01T07:28:07.269Z,69.35
2022-11-01T07:29:07.258Z,67.71
2022-11-01T07:30:07.347Z,65.13
2022-11-01T07:31:16.347Z,67.85
2022-11-01T07:32:07.235Z,65.98
2022-11-01T07:33:07.394Z,67.59
2022-11-01T07:34:07.224Z,68.16
2022-11-01T07:35:07.246Z,68.47
2022-11-01T07:36:07.201Z,66.80
2022-11-01T07:37:07.222Z,68.12
2022-11-01T07:38:09.856Z,68.55
2022-11-01T07:39:08.175Z,68.70
2022-11-01T07:40:07.171Z,64.38
2022-11-01T07:41:07.168Z,65.20
2022-11-01T07:42:07.211Z,67.70
2022-11-01T07:43:07.149Z,66.69
2022-11-01T07:44:07.233Z,67.18
2022-11-01T07:45:12.012Z,66.57
2022-11-01T07:46:08.152Z,65.80
2022-11-01T07:47:07.121Z,68.92
2022-11-01T07:48:07.116Z,65.74
2022-11-01T07:49:07.102Z,64.31
2022-11-01T07:50:07.213Z,67.03
2022-11-01T07:51:07.107Z,66.96
2022-11-01T07:52:07.099Z,68.27
2022-11-01T07:53:07.074Z,66.21
2022-11-01T07:54:07.103Z,68.88
2022-11-01T07:55:07.061Z,65.42
2022-11-01T07:56:07.143Z,66.96
2022-11-01T07:57:07.051Z,68.44
2022-11-01T07:58:07.037Z,65.90
2022-11-01T07:59:07.052Z,65.47
2022-11-01T08:00:07.019Z,65.76
2022-11-01T08:01:07.122Z,65.95
2022-11-01T08:02:08.153Z,67.59
2022-11-01T08:03:06.994Z,67.73
2022-11-01T08:04:06.992Z,68.40
2022-11-01T08:05:07.060Z,67.72
2022-11-01T08:06:06.959Z,67.38
2022-11-01T08:07:06.958Z,65.30
2022-11-01T08:08:07.141Z,66.95
2022-11-01T08:09:06.972Z,65.35
2022-11-01T08:10:06.930Z,66.17
2022-11-01T08:11:06.947Z,65.71
2022-11-01T08:12:06.942Z,64.84
2022-11-01T08:13:06.958Z,67.32
2022-11-01T08:14:11.207Z,65.41
2022-11-01T08:15:07.936Z,65.70
2022-11-01T08:16:06.888Z,67.44
2022-11-01T08:17:06.880Z,68.17
2022-11-01T08:18:07.084Z,66.50
2022-11-01T08:19:06.861Z,66.29
2022-11-01T08:20:06.888Z,68.16
2022-11-01T08:21:06.896Z,65.72
2022-11-01T08:22:06.851Z,65.80
2022-11-01T08:23:07.224Z,65.64
2022-11-01T08:24:06.825Z,66.81
2022-11-01T08:25:06.829Z,66.72
2022-11-01T08:26:06.809Z,64.95
2022-11-01T08:27:06.798Z,66.27
2022-11-01T08:28:06.972Z,64.95
2022-11-01T08:29:06.776Z,65.57
2022-11-01T08:30:06.772Z,66.40
2022-11-01T08:31:06.775Z,67.58
2022-11-01T08:32:06.774Z,67.17
2022-11-01T08:33:07.109Z,62.53
2022-11-01T08:34:06.802Z,66.61
2022-11-01T08:35:06.784Z,67.36
2022-11-01T08:36:06.725Z,66.88
2022-11-01T08:37:06.720Z,67.18
2022-11-01T08:38:06.706Z,65.89
2022-11-01T08:39:06.761Z,69.36
2022-11-01T08:40:06.722Z,68.02
2022-11-01T08:41:06.685Z,66.45
2022-11-01T08:42:06.694Z,64.32
2022-11-01T08:43:06.845Z,64.82
2022-11-01T08:44:06.668Z,67.61
2022-11-01T08:45:06.669Z,66.49
2022-11-01T08:46:06.676Z,67.82
2022-11-01T08:47:06.644Z,66.68
2022-11-01T08:48:06.632Z,67.22
2022-11-01T08:49:06.639Z,64.62
2022-11-01T08:50:08.744Z,66.64
2022-11-01T08:51:06.608Z,67.70
2022-11-01T08:52:06.630Z,68.45
2022-11-01T08:53:06.592Z,67.00
2022-11-01T08:54:06.590Z,67.05
2022-11-01T08:55:06.604Z,65.36
2022-11-01T08:56:06.580Z,66.97
2022-11-01T08:57:06.588Z,67.68
2022-11-01T08:58:06.727Z,67.44
2022-11-01T08:59:06.556Z,67.50
2022-11-01T09:00:06.545Z,66.30
2022-11-01T09:01:06.633Z,65.96
2022-11-01T09:02:06.615Z,66.78
2022-11-01T09:03:06.540Z,65.46
2022-11-01T09:04:06.530Z,65.83
2022-11-01T09:05:06.497Z,65.41
2022-11-01T09:06:06.492Z,68.37
2022-11-01T09:07:06.487Z,68.16
2022-11-01T09:08:06.945Z,67.28
2022-11-01T09:09:06.494Z,64.15
2022-11-01T09:10:06.459Z,66.05
2022-11-01T09:11:06.466Z,62.82
2022-11-01T09:12:08.670Z,63.77
2022-11-01T09:13:07.788Z,63.54
2022-11-01T09:14:06.438Z,64.69
2022-11-01T09:15:06.451Z,63.23
2022-11-01T09:16:06.455Z,62.89
2022-11-01T09:17:06.403Z,63.47
2022-11-01T09:18:06.400Z,64.18
2022-11-01T09:19:06.392Z,67.27
2022-11-01T09:20:06.385Z,66.24
2022-11-01T09:21:06.458Z,63.88
2022-11-01T09:22:06.393Z,64.19
2022-11-01T09:23:06.521Z,64.69
2022-11-01T09:24:06.346Z,63.38
2022-11-01T09:25:06.338Z,64.74
2022-11-01T09:26:06.339Z,63.98
2022-11-01T09:27:06.334Z,65.50
2022-11-01T09:28:06.362Z,65.40
2022-11-01T09:29:06.314Z,63.00
2022-11-01T09:30:06.325Z,65.99
2022-11-01T09:31:19.960Z,62.98
2022-11-01T09:32:07.268Z,63.06
2022-11-01T09:33:06.265Z,64.62
2022-11-01T09:34:06.281Z,62.55
2022-11-01T09:35:06.248Z,63.39
2022-11-01T09:36:06.238Z,66.75
2022-11-01T09:37:06.225Z,62.63
2022-11-01T09:38:06.222Z,63.82
2022-11-01T09:39:06.242Z,65.04
2022-11-01T09:40:06.229Z,65.83
2022-11-01T09:41:06.195Z,64.60
2022-11-01T09:42:06.196Z,64.17
2022-11-01T09:43:06.642Z,63.06
2022-11-01T09:44:06.178Z,64.00
2022-11-01T09:45:06.219Z,63.00
2022-11-01T09:46:06.154Z,64.08
2022-11-01T09:47:06.146Z,64.60
2022-11-01T09:48:06.412Z,63.65
2022-11-01T09:49:06.126Z,63.15
2022-11-01T09:50:06.145Z,62.93
2022-11-01T09:51:06.140Z,61.23
2022-11-01T09:52:06.100Z,63.21
2022-11-01T09:53:06.093Z,63.20
2022-11-01T09:54:06.186Z,64.36
2022-11-01T09:55:06.096Z,64.43
2022-11-01T09:56:06.115Z,64.66
2022-11-01T09:57:06.216Z,65.42
2022-11-01T09:58:06.885Z,65.34
2022-11-01T09:59:06.058Z,61.76
2022-11-01T10:00:06.047Z,62.94
2022-11-01T10:01:06.109Z,64.92
2022-11-01T10:02:09.924Z,63.66
2022-11-01T10:03:06.113Z,63.14
2022-11-01T10:04:05.998Z,62.52
2022-11-01T10:05:06.007Z,63.02
2022-11-01T10:06:05.989Z,63.42
2022-11-01T10:07:05.975Z,61.92
2022-11-01T10:08:06.095Z,62.79
2022-11-01T10:09:05.988Z,62.78
2022-11-01T10:10:05.990Z,63.90
2022-11-01T10:11:05.953Z,63.55
2022-11-01T10:12:05.972Z,64.70
2022-11-01T10:13:05.942Z,63.00
2022-11-01T10:14:05.920Z,60.02
2022-11-01T10:15:05.944Z,61.79
2022-11-01T10:16:05.919Z,63.33
2022-11-01T10:17:05.916Z,64.04
2022-11-01T10:18:06.203Z,64.33
2022-11-01T10:19:05.890Z,63.06
2022-11-01T10:21:05.851Z,64.64
2022-11-01T10:22:05.837Z,64.06
2022-11-01T10:23:06.066Z,63.32
2022-11-01T10:24:05.848Z,63.20
2022-11-01T10:25:05.815Z,65.54
2022-11-01T10:26:05.854Z,63.61
2022-11-01T10:27:05.803Z,63.91
2022-11-01T10:28:05.831Z,63.54
2022-11-01T10:29:05.792Z,63.00
2022-11-01T10:30:05.790Z,61.84
2022-11-01T10:31:05.798Z,62.32
2022-11-01T10:32:05.769Z,61.45
2022-11-01T10:33:06.072Z,61.81
2022-11-01T10:34:05.745Z,64.75
2022-11-01T10:35:05.798Z,65.20
2022-11-01T10:36:05.761Z,64.23
2022-11-01T10:37:07.359Z,64.96
2022-11-01T10:38:19.185Z,63.44
2022-11-01T10:39:52.803Z,61.32
2022-11-01T10:40:11.338Z,61.98
2022-11-01T10:41:08.347Z,63.78
2022-11-01T10:42:05.704Z,64.12
2022-11-01T10:43:05.708Z,62.10
2022-11-01T10:44:05.669Z,63.38
2022-11-01T10:45:05.650Z,64.09
2022-11-01T10:46:06.401Z,64.05
2022-11-01T10:47:05.699Z,61.47
2022-11-01T10:48:05.709Z,63.84
2022-11-01T10:49:05.616Z,63.12
2022-11-01T10:50:06.909Z,63.63
2022-11-01T10:51:05.601Z,64.80
2022-11-01T10:52:05.602Z,64.60
2022-11-01T10:53:05.675Z,61.85
2022-11-01T10:54:05.576Z,64.35
2022-11-01T10:55:05.572Z,64.88
2022-11-01T10:56:05.627Z,65.59
2022-11-01T10:57:05.551Z,66.23
2022-11-01T10:58:05.978Z,65.33
2022-11-01T10:59:05.564Z,62.90
2022-11-01T11:00:05.552Z,62.06
2022-11-01T11:01:05.678Z,64.21
2022-11-01T11:02:05.734Z,65.77
2022-11-01T11:03:05.562Z,66.07
2022-11-01T11:04:05.500Z,63.40
2022-11-01T11:05:05.520Z,64.88
2022-11-01T11:06:05.490Z,64.88
2022-11-01T11:07:05.469Z,63.87
2022-11-01T11:08:06.179Z,63.95
2022-11-01T11:09:05.732Z,60.90
2022-11-01T11:10:05.520Z,63.51
2022-11-01T11:11:05.527Z,64.45
2022-11-01T11:12:05.446Z,63.66
2022-11-01T11:13:05.780Z,63.22
2022-11-01T11:14:05.448Z,65.32
2022-11-01T11:15:05.414Z,63.56
2022-11-01T11:16:05.479Z,63.03
2022-11-01T11:17:05.409Z,64.59
2022-11-01T11:18:05.375Z,64.00
2022-11-01T11:19:05.392Z,63.16
2022-11-01T11:20:05.389Z,63.93
2022-11-01T11:21:05.359Z,65.83
2022-11-01T11:22:05.415Z,62.27
2022-11-01T11:23:05.830Z,64.96
2022-11-01T11:24:05.340Z,65.07
2022-11-01T11:25:05.327Z,63.25
2022-11-01T11:26:05.320Z,64.11
2022-11-01T11:27:05.346Z,66.00
2022-11-01T11:28:05.913Z,64.01
2022-11-01T11:29:05.283Z,65.81
2022-11-01T11:30:05.326Z,65.67
2022-11-01T11:31:05.277Z,64.03
2022-11-01T11:32:05.278Z,65.73
2022-11-01T11:33:05.433Z,65.84
2022-11-01T11:34:05.270Z,65.09
2022-11-01T11:35:05.244Z,63.88
2022-11-01T11:36:05.241Z,66.99
2022-11-01T11:37:05.235Z,65.83
2022-11-01T11:38:05.790Z,64.60
2022-11-01T11:39:05.218Z,64.50
2022-11-01T11:40:05.206Z,63.98
2022-11-01T11:41:05.191Z,64.02
2022-11-01T11:42:05.212Z,63.50
2022-11-01T11:43:05.199Z,62.14
2022-11-01T11:44:05.184Z,64.20
2022-11-01T11:45:05.153Z,60.76
2022-11-01T11:46:05.152Z,59.76
2022-11-01T11:47:05.133Z,62.83
2022-11-01T11:48:05.427Z,60.83
2022-11-01T11:49:05.172Z,63.01
2022-11-01T11:50:05.127Z,62.80
2022-11-01T11:51:05.131Z,59.23
2022-11-01T11:52:05.103Z,63.38
2022-11-01T11:53:05.098Z,61.52
2022-11-01T11:54:05.080Z,58.09
2022-11-01T11:55:05.077Z,61.92
2022-11-01T11:56:05.093Z,63.88
2022-11-01T11:57:05.061Z,59.79
2022-11-01T11:58:05.204Z,62.77
2022-11-01T11:59:08.522Z,61.43
2022-11-01T12:00:05.076Z,64.20
2022-11-01T12:01:05.053Z,63.03
2022-11-01T12:02:05.079Z,60.39
2022-11-01T12:03:05.552Z,63.46
2022-11-01T12:04:04.992Z,63.75
2022-11-01T12:05:04.990Z,63.06
2022-11-01T12:06:04.969Z,61.08
2022-11-01T12:07:05.140Z,62.00
2022-11-01T12:08:04.970Z,62.89
2022-11-01T12:09:04.954Z,64.23
2022-11-01T12:10:05.043Z,65.24
2022-11-01T12:11:04.929Z,64.34
2022-11-01T12:12:04.930Z,64.37
2022-11-01T12:13:05.508Z,62.25
2022-11-01T12:14:04.916Z,63.71
2022-11-01T12:15:04.948Z,62.53
2022-11-01T12:16:04.895Z,63.41
2022-11-01T12:17:04.882Z,63.15
2022-11-01T12:18:05.083Z,64.09
2022-11-01T12:19:04.870Z,62.58
2022-11-01T12:20:04.886Z,62.64
2022-11-01T12:21:04.855Z,63.61
2022-11-01T12:22:04.866Z,62.58
2022-11-01T12:23:04.931Z,62.91
2022-11-01T12:24:04.816Z,63.17
2022-11-01T12:25:04.837Z,61.19
2022-11-01T12:26:04.804Z,60.95
2022-11-01T12:27:04.826Z,60.86
2022-11-01T12:28:05.167Z,62.77
2022-11-01T12:29:04.788Z,62.32
2022-11-01T12:30:04.774Z,62.37
2022-11-01T12:31:04.805Z,63.76
2022-11-01T12:32:04.765Z,60.87
2022-11-01T12:33:04.776Z,63.50
2022-11-01T12:34:04.748Z,64.92
2022-11-01T12:35:04.728Z,59.87
2022-11-01T12:36:04.749Z,63.38
2022-11-01T12:37:04.719Z,62.07
2022-11-01T12:38:05.185Z,63.97
2022-11-01T12:39:04.703Z,63.61
2022-11-01T12:40:04.698Z,61.58
2022-11-01T12:41:04.682Z,61.78
2022-11-01T12:42:04.695Z,62.65
2022-11-01T12:43:04.664Z,63.81
2022-11-01T12:44:04.656Z,63.43
2022-11-01T12:45:04.647Z,63.35
2022-11-01T12:46:04.701Z,62.16
2022-11-01T12:47:04.635Z,64.31
2022-11-01T12:48:05.027Z,61.83
2022-11-01T12:49:04.637Z,63.50
2022-11-01T12:50:04.673Z,63.05
2022-11-01T12:51:04.598Z,62.27
2022-11-01T12:52:04.597Z,62.20
2022-11-01T12:53:05.076Z,62.50
2022-11-01T12:54:04.607Z,63.01
2022-11-01T12:55:04.642Z,64.08